sensor_id;sensor_type;location;lat;lon;timestamp;pressure;altitude;pressure_sealevel;temperature
19666;BMP180;9980;51.020;7.772;2023-07-30T00:00:52;96979.00;;;20.90
19666;BMP180;9980;51.020;7.772;2023-07-30T00:03:19;96984.00;;;20.90
19666;BMP180;9980;51.020;7.772;2023-07-30T00:05:55;96990.00;;;20.90
19666;BMP180;9980;51.020;7.772;2023-07-30T00:08:23;96998.00;;;20.90
19666;BMP180;9980;51.020;7.772;2023-07-30T00:10:50;96989.00;;;20.90
19666;BMP180;9980;51.020;7.772;2023-07-30T00:13:17;96980.00;;;20.90
19666;BMP180;9980;51.020;7.772;2023-07-30T00:15:48;96997.00;;;20.90
19666;BMP180;9980;51.020;7.772;2023-07-30T00:18:16;96996.00;;;20.90
19666;BMP180;9980;51.020;7.772;2023-07-30T00:20:43;97001.00;;;20.90
19666;BMP180;9980;51.020;7.772;2023-07-30T00:23:10;96980.00;;;20.90
19666;BMP180;9980;51.020;7.772;2023-07-30T00:25:37;96999.00;;;20.90
19666;BMP180;9980;51.020;7.772;2023-07-30T00:28:04;96982.00;;;20.80
19666;BMP180;9980;51.020;7.772;2023-07-30T00:30:31;96982.00;;;20.80
19666;BMP180;9980;51.020;7.772;2023-07-30T00:32:58;96983.00;;;20.80
19666;BMP180;9980;51.020;7.772;2023-07-30T00:35:26;96988.00;;;20.80
19666;BMP180;9980;51.020;7.772;2023-07-30T00:37:53;97001.00;;;20.70
19666;BMP180;9980;51.020;7.772;2023-07-30T00:40:23;97002.00;;;20.70
19666;BMP180;9980;51.020;7.772;2023-07-30T00:42:50;96984.00;;;20.70
19666;BMP180;9980;51.020;7.772;2023-07-30T00:45:17;97000.00;;;20.70
19666;BMP180;9980;51.020;7.772;2023-07-30T00:47:44;96993.00;;;20.70
19666;BMP180;9980;51.020;7.772;2023-07-30T00:50:16;96996.00;;;20.60
19666;BMP180;9980;51.020;7.772;2023-07-30T00:52:44;97003.00;;;20.60
19666;BMP180;9980;51.020;7.772;2023-07-30T00:55:12;97008.00;;;20.60
19666;BMP180;9980;51.020;7.772;2023-07-30T00:57:43;97008.00;;;20.50
19666;BMP180;9980;51.020;7.772;2023-07-30T01:00:11;97012.00;;;20.50
19666;BMP180;9980;51.020;7.772;2023-07-30T01:02:38;97013.00;;;20.50
19666;BMP180;9980;51.020;7.772;2023-07-30T01:05:06;97010.00;;;20.50
19666;BMP180;9980;51.020;7.772;2023-07-30T01:07:33;97014.00;;;20.50
19666;BMP180;9980;51.020;7.772;2023-07-30T01:10:02;97013.00;;;20.40
19666;BMP180;9980;51.020;7.772;2023-07-30T01:12:30;97011.00;;;20.40
19666;BMP180;9980;51.020;7.772;2023-07-30T01:14:59;97011.00;;;20.40
19666;BMP180;9980;51.020;7.772;2023-07-30T01:17:26;97019.00;;;20.40
19666;BMP180;9980;51.020;7.772;2023-07-30T01:19:53;97016.00;;;20.40
19666;BMP180;9980;51.020;7.772;2023-07-30T01:22:24;97021.00;;;20.40
19666;BMP180;9980;51.020;7.772;2023-07-30T01:24:51;97023.00;;;20.40
19666;BMP180;9980;51.020;7.772;2023-07-30T01:27:30;97030.00;;;20.40
19666;BMP180;9980;51.020;7.772;2023-07-30T01:30:18;97034.00;;;20.30
19666;BMP180;9980;51.020;7.772;2023-07-30T01:32:50;97028.00;;;20.40
19666;BMP180;9980;51.020;7.772;2023-07-30T01:35:26;97019.00;;;20.30
19666;BMP180;9980;51.020;7.772;2023-07-30T01:37:54;97032.00;;;20.40
19666;BMP180;9980;51.020;7.772;2023-07-30T01:40:21;97025.00;;;20.30
19666;BMP180;9980;51.020;7.772;2023-07-30T01:42:49;97023.00;;;20.30
19666;BMP180;9980;51.020;7.772;2023-07-30T01:45:17;97027.00;;;20.30
19666;BMP180;9980;51.020;7.772;2023-07-30T01:47:44;97038.00;;;20.30
19666;BMP180;9980;51.020;7.772;2023-07-30T01:50:11;97031.00;;;20.30
19666;BMP180;9980;51.020;7.772;2023-07-30T01:52:38;97037.00;;;20.30
19666;BMP180;9980;51.020;7.772;2023-07-30T01:55:06;97035.00;;;20.20
19666;BMP180;9980;51.020;7.772;2023-07-30T01:57:33;97039.00;;;20.20
19666;BMP180;9980;51.020;7.772;2023-07-30T02:00:00;97031.00;;;20.20
19666;BMP180;9980;51.020;7.772;2023-07-30T02:02:27;97036.00;;;20.20
19666;BMP180;9980;51.020;7.772;2023-07-30T02:04:54;97037.00;;;20.20
19666;BMP180;9980;51.020;7.772;2023-07-30T02:07:21;97032.00;;;20.20
19666;BMP180;9980;51.020;7.772;2023-07-30T02:09:48;97030.00;;;20.10
19666;BMP180;9980;51.020;7.772;2023-07-30T02:12:15;97027.00;;;20.10
19666;BMP180;9980;51.020;7.772;2023-07-30T02:14:42;97016.00;;;20.10
19666;BMP180;9980;51.020;7.772;2023-07-30T02:17:09;97030.00;;;20.10
19666;BMP180;9980;51.020;7.772;2023-07-30T02:19:36;97026.00;;;20.10
19666;BMP180;9980;51.020;7.772;2023-07-30T02:22:03;97037.00;;;20.00
19666;BMP180;9980;51.020;7.772;2023-07-30T02:24:30;97039.00;;;20.00
19666;BMP180;9980;51.020;7.772;2023-07-30T02:26:57;97029.00;;;20.00
19666;BMP180;9980;51.020;7.772;2023-07-30T02:29:24;97025.00;;;20.00
19666;BMP180;9980;51.020;7.772;2023-07-30T02:31:52;97031.00;;;20.00
19666;BMP180;9980;51.020;7.772;2023-07-30T02:34:19;97043.00;;;20.00
19666;BMP180;9980;51.020;7.772;2023-07-30T02:36:48;97043.00;;;19.90
19666;BMP180;9980;51.020;7.772;2023-07-30T02:39:15;97045.00;;;20.00
19666;BMP180;9980;51.020;7.772;2023-07-30T02:41:42;97045.00;;;20.00
19666;BMP180;9980;51.020;7.772;2023-07-30T02:44:09;97046.00;;;19.90
19666;BMP180;9980;51.020;7.772;2023-07-30T02:46:36;97055.00;;;19.90
19666;BMP180;9980;51.020;7.772;2023-07-30T02:49:03;97051.00;;;19.90
19666;BMP180;9980;51.020;7.772;2023-07-30T02:51:30;97050.00;;;20.00
19666;BMP180;9980;51.020;7.772;2023-07-30T02:53:58;97052.00;;;20.00
19666;BMP180;9980;51.020;7.772;2023-07-30T02:56:26;97062.00;;;20.00
19666;BMP180;9980;51.020;7.772;2023-07-30T02:58:53;97048.00;;;20.00
19666;BMP180;9980;51.020;7.772;2023-07-30T03:01:20;97050.00;;;20.00
19666;BMP180;9980;51.020;7.772;2023-07-30T03:03:48;97057.00;;;20.00
19666;BMP180;9980;51.020;7.772;2023-07-30T03:06:15;97055.00;;;20.00
19666;BMP180;9980;51.020;7.772;2023-07-30T03:08:44;97043.00;;;20.00
19666;BMP180;9980;51.020;7.772;2023-07-30T03:11:10;97051.00;;;20.00
19666;BMP180;9980;51.020;7.772;2023-07-30T03:13:37;97055.00;;;20.00
19666;BMP180;9980;51.020;7.772;2023-07-30T03:16:04;97043.00;;;20.00
19666;BMP180;9980;51.020;7.772;2023-07-30T03:18:31;97057.00;;;20.10
19666;BMP180;9980;51.020;7.772;2023-07-30T03:21:03;97045.00;;;20.00
19666;BMP180;9980;51.020;7.772;2023-07-30T03:23:30;97042.00;;;20.00
19666;BMP180;9980;51.020;7.772;2023-07-30T03:25:59;97041.00;;;20.10
19666;BMP180;9980;51.020;7.772;2023-07-30T03:28:27;97047.00;;;20.10
19666;BMP180;9980;51.020;7.772;2023-07-30T03:30:54;97049.00;;;20.10
19666;BMP180;9980;51.020;7.772;2023-07-30T03:33:21;97049.00;;;20.10
19666;BMP180;9980;51.020;7.772;2023-07-30T03:35:50;97049.00;;;20.10
19666;BMP180;9980;51.020;7.772;2023-07-30T03:38:17;97054.00;;;20.10
19666;BMP180;9980;51.020;7.772;2023-07-30T03:40:44;97051.00;;;20.10
19666;BMP180;9980;51.020;7.772;2023-07-30T03:43:11;97060.00;;;20.10
19666;BMP180;9980;51.020;7.772;2023-07-30T03:45:38;97051.00;;;20.20
19666;BMP180;9980;51.020;7.772;2023-07-30T03:48:06;97062.00;;;20.20
19666;BMP180;9980;51.020;7.772;2023-07-30T03:50:33;97071.00;;;20.20
19666;BMP180;9980;51.020;7.772;2023-07-30T03:53:00;97055.00;;;20.20
19666;BMP180;9980;51.020;7.772;2023-07-30T03:55:27;97075.00;;;20.20
19666;BMP180;9980;51.020;7.772;2023-07-30T03:57:55;97062.00;;;20.20
19666;BMP180;9980;51.020;7.772;2023-07-30T04:00:23;97074.00;;;20.20
19666;BMP180;9980;51.020;7.772;2023-07-30T04:02:50;97070.00;;;20.20
19666;BMP180;9980;51.020;7.772;2023-07-30T04:05:17;97070.00;;;20.20
19666;BMP180;9980;51.020;7.772;2023-07-30T04:07:44;97081.00;;;20.20
19666;BMP180;9980;51.020;7.772;2023-07-30T04:10:11;97072.00;;;20.20
19666;BMP180;9980;51.020;7.772;2023-07-30T04:12:38;97067.00;;;20.20
19666;BMP180;9980;51.020;7.772;2023-07-30T04:15:07;97080.00;;;20.20
19666;BMP180;9980;51.020;7.772;2023-07-30T04:17:36;97074.00;;;20.20
19666;BMP180;9980;51.020;7.772;2023-07-30T04:20:05;97068.00;;;20.20
19666;BMP180;9980;51.020;7.772;2023-07-30T04:22:32;97076.00;;;20.20
19666;BMP180;9980;51.020;7.772;2023-07-30T04:24:59;97074.00;;;20.30
19666;BMP180;9980;51.020;7.772;2023-07-30T04:27:26;97067.00;;;20.20
19666;BMP180;9980;51.020;7.772;2023-07-30T04:29:57;97062.00;;;20.30
19666;BMP180;9980;51.020;7.772;2023-07-30T04:32:24;97062.00;;;20.30
19666;BMP180;9980;51.020;7.772;2023-07-30T04:34:51;97063.00;;;20.30
19666;BMP180;9980;51.020;7.772;2023-07-30T04:37:18;97076.00;;;20.30
19666;BMP180;9980;51.020;7.772;2023-07-30T04:39:46;97058.00;;;20.30
19666;BMP180;9980;51.020;7.772;2023-07-30T04:42:13;97064.00;;;20.30
19666;BMP180;9980;51.020;7.772;2023-07-30T04:44:43;97066.00;;;20.30
19666;BMP180;9980;51.020;7.772;2023-07-30T04:47:14;97070.00;;;20.30
19666;BMP180;9980;51.020;7.772;2023-07-30T04:49:41;97069.00;;;20.30
19666;BMP180;9980;51.020;7.772;2023-07-30T04:52:08;97065.00;;;20.30
19666;BMP180;9980;51.020;7.772;2023-07-30T04:54:35;97069.00;;;20.30
19666;BMP180;9980;51.020;7.772;2023-07-30T04:57:03;97064.00;;;20.30
19666;BMP180;9980;51.020;7.772;2023-07-30T04:59:30;97074.00;;;20.30
19666;BMP180;9980;51.020;7.772;2023-07-30T05:01:57;97078.00;;;20.30
19666;BMP180;9980;51.020;7.772;2023-07-30T05:04:24;97066.00;;;20.30
19666;BMP180;9980;51.020;7.772;2023-07-30T05:06:51;97069.00;;;20.30
19666;BMP180;9980;51.020;7.772;2023-07-30T05:09:17;97076.00;;;20.30
19666;BMP180;9980;51.020;7.772;2023-07-30T05:11:44;97077.00;;;20.30
19666;BMP180;9980;51.020;7.772;2023-07-30T05:14:11;97074.00;;;20.30
19666;BMP180;9980;51.020;7.772;2023-07-30T05:16:38;97076.00;;;20.30
19666;BMP180;9980;51.020;7.772;2023-07-30T05:19:05;97076.00;;;20.30
19666;BMP180;9980;51.020;7.772;2023-07-30T05:21:32;97074.00;;;20.30
19666;BMP180;9980;51.020;7.772;2023-07-30T05:23:59;97079.00;;;20.30
19666;BMP180;9980;51.020;7.772;2023-07-30T05:26:26;97075.00;;;20.30
19666;BMP180;9980;51.020;7.772;2023-07-30T05:28:53;97079.00;;;20.30
19666;BMP180;9980;51.020;7.772;2023-07-30T05:31:20;97073.00;;;20.30
19666;BMP180;9980;51.020;7.772;2023-07-30T05:33:47;97097.00;;;20.30
19666;BMP180;9980;51.020;7.772;2023-07-30T05:36:14;97084.00;;;20.30
19666;BMP180;9980;51.020;7.772;2023-07-30T05:38:41;97081.00;;;20.30
19666;BMP180;9980;51.020;7.772;2023-07-30T05:41:08;97090.00;;;20.30
19666;BMP180;9980;51.020;7.772;2023-07-30T05:43:35;97075.00;;;20.30
19666;BMP180;9980;51.020;7.772;2023-07-30T05:46:02;97081.00;;;20.30
19666;BMP180;9980;51.020;7.772;2023-07-30T05:48:29;97073.00;;;20.40
19666;BMP180;9980;51.020;7.772;2023-07-30T05:50:56;97092.00;;;20.40
19666;BMP180;9980;51.020;7.772;2023-07-30T05:53:23;97085.00;;;20.40
19666;BMP180;9980;51.020;7.772;2023-07-30T05:55:50;97082.00;;;20.40
19666;BMP180;9980;51.020;7.772;2023-07-30T05:58:17;97068.00;;;20.50
19666;BMP180;9980;51.020;7.772;2023-07-30T06:00:44;97070.00;;;20.50
19666;BMP180;9980;51.020;7.772;2023-07-30T06:03:11;97091.00;;;20.50
19666;BMP180;9980;51.020;7.772;2023-07-30T06:05:40;97087.00;;;20.50
19666;BMP180;9980;51.020;7.772;2023-07-30T06:08:08;97089.00;;;20.60
19666;BMP180;9980;51.020;7.772;2023-07-30T06:10:38;97094.00;;;20.60
19666;BMP180;9980;51.020;7.772;2023-07-30T06:13:07;97086.00;;;20.60
19666;BMP180;9980;51.020;7.772;2023-07-30T06:15:34;97090.00;;;20.70
19666;BMP180;9980;51.020;7.772;2023-07-30T06:18:02;97097.00;;;20.70
19666;BMP180;9980;51.020;7.772;2023-07-30T06:20:30;97099.00;;;20.70
19666;BMP180;9980;51.020;7.772;2023-07-30T06:22:57;97095.00;;;20.70
19666;BMP180;9980;51.020;7.772;2023-07-30T06:25:24;97097.00;;;20.70
19666;BMP180;9980;51.020;7.772;2023-07-30T06:27:51;97108.00;;;20.80
19666;BMP180;9980;51.020;7.772;2023-07-30T06:30:21;97098.00;;;20.80
19666;BMP180;9980;51.020;7.772;2023-07-30T06:32:47;97093.00;;;20.80
19666;BMP180;9980;51.020;7.772;2023-07-30T06:35:15;97091.00;;;20.80
19666;BMP180;9980;51.020;7.772;2023-07-30T06:37:43;97089.00;;;20.80
19666;BMP180;9980;51.020;7.772;2023-07-30T06:40:10;97097.00;;;20.80
19666;BMP180;9980;51.020;7.772;2023-07-30T06:42:37;97111.00;;;20.80
19666;BMP180;9980;51.020;7.772;2023-07-30T06:45:08;97107.00;;;20.80
19666;BMP180;9980;51.020;7.772;2023-07-30T06:47:35;97090.00;;;20.80
19666;BMP180;9980;51.020;7.772;2023-07-30T06:50:04;97093.00;;;20.80
19666;BMP180;9980;51.020;7.772;2023-07-30T06:52:31;97095.00;;;20.80
19666;BMP180;9980;51.020;7.772;2023-07-30T06:54:58;97092.00;;;20.80
19666;BMP180;9980;51.020;7.772;2023-07-30T06:57:26;97110.00;;;20.80
19666;BMP180;9980;51.020;7.772;2023-07-30T06:59:53;97105.00;;;20.90
19666;BMP180;9980;51.020;7.772;2023-07-30T07:02:22;97114.00;;;20.90
19666;BMP180;9980;51.020;7.772;2023-07-30T07:04:50;97123.00;;;20.90
19666;BMP180;9980;51.020;7.772;2023-07-30T07:07:17;97138.00;;;20.90
19666;BMP180;9980;51.020;7.772;2023-07-30T07:09:44;97127.00;;;20.90
19666;BMP180;9980;51.020;7.772;2023-07-30T07:12:11;97120.00;;;20.90
19666;BMP180;9980;51.020;7.772;2023-07-30T07:14:38;97131.00;;;20.80
19666;BMP180;9980;51.020;7.772;2023-07-30T07:17:06;97120.00;;;20.80
19666;BMP180;9980;51.020;7.772;2023-07-30T07:19:35;97139.00;;;20.80
19666;BMP180;9980;51.020;7.772;2023-07-30T07:22:05;97129.00;;;20.80
19666;BMP180;9980;51.020;7.772;2023-07-30T07:24:34;97142.00;;;20.80
19666;BMP180;9980;51.020;7.772;2023-07-30T07:27:01;97147.00;;;20.70
19666;BMP180;9980;51.020;7.772;2023-07-30T07:29:28;97161.00;;;20.70
19666;BMP180;9980;51.020;7.772;2023-07-30T07:31:55;97164.00;;;20.70
19666;BMP180;9980;51.020;7.772;2023-07-30T07:34:22;97170.00;;;20.70
19666;BMP180;9980;51.020;7.772;2023-07-30T07:36:49;97173.00;;;20.70
19666;BMP180;9980;51.020;7.772;2023-07-30T07:39:16;97187.00;;;20.60
19666;BMP180;9980;51.020;7.772;2023-07-30T07:41:46;97184.00;;;20.60
19666;BMP180;9980;51.020;7.772;2023-07-30T07:44:13;97180.00;;;20.60
19666;BMP180;9980;51.020;7.772;2023-07-30T07:46:41;97177.00;;;20.50
19666;BMP180;9980;51.020;7.772;2023-07-30T07:49:08;97174.00;;;20.50
19666;BMP180;9980;51.020;7.772;2023-07-30T07:51:35;97159.00;;;20.50
19666;BMP180;9980;51.020;7.772;2023-07-30T07:54:02;97169.00;;;20.50
19666;BMP180;9980;51.020;7.772;2023-07-30T07:56:31;97175.00;;;20.50
19666;BMP180;9980;51.020;7.772;2023-07-30T07:58:58;97151.00;;;20.50
19666;BMP180;9980;51.020;7.772;2023-07-30T08:01:25;97160.00;;;20.50
19666;BMP180;9980;51.020;7.772;2023-07-30T08:03:52;97164.00;;;20.50
19666;BMP180;9980;51.020;7.772;2023-07-30T08:06:19;97157.00;;;20.50
19666;BMP180;9980;51.020;7.772;2023-07-30T08:08:46;97150.00;;;20.60
19666;BMP180;9980;51.020;7.772;2023-07-30T08:11:13;97151.00;;;20.60
19666;BMP180;9980;51.020;7.772;2023-07-30T08:13:40;97153.00;;;20.60
19666;BMP180;9980;51.020;7.772;2023-07-30T08:16:08;97155.00;;;20.70
19666;BMP180;9980;51.020;7.772;2023-07-30T08:18:35;97157.00;;;20.70
19666;BMP180;9980;51.020;7.772;2023-07-30T08:21:01;97158.00;;;20.70
19666;BMP180;9980;51.020;7.772;2023-07-30T08:23:28;97165.00;;;20.70
19666;BMP180;9980;51.020;7.772;2023-07-30T08:25:56;97159.00;;;20.70
19666;BMP180;9980;51.020;7.772;2023-07-30T08:28:22;97171.00;;;20.80
19666;BMP180;9980;51.020;7.772;2023-07-30T08:30:49;97167.00;;;20.80
19666;BMP180;9980;51.020;7.772;2023-07-30T08:33:16;97178.00;;;20.80
19666;BMP180;9980;51.020;7.772;2023-07-30T08:35:43;97166.00;;;20.80
19666;BMP180;9980;51.020;7.772;2023-07-30T08:38:10;97166.00;;;20.90
19666;BMP180;9980;51.020;7.772;2023-07-30T08:40:37;97166.00;;;20.90
19666;BMP180;9980;51.020;7.772;2023-07-30T08:43:04;97148.00;;;20.90
19666;BMP180;9980;51.020;7.772;2023-07-30T08:45:32;97157.00;;;20.90
19666;BMP180;9980;51.020;7.772;2023-07-30T08:47:59;97158.00;;;20.90
19666;BMP180;9980;51.020;7.772;2023-07-30T08:50:27;97165.00;;;20.90
19666;BMP180;9980;51.020;7.772;2023-07-30T08:52:55;97164.00;;;20.90
19666;BMP180;9980;51.020;7.772;2023-07-30T08:55:25;97170.00;;;20.90
19666;BMP180;9980;51.020;7.772;2023-07-30T08:57:54;97165.00;;;21.00
19666;BMP180;9980;51.020;7.772;2023-07-30T09:00:36;97154.00;;;21.00
19666;BMP180;9980;51.020;7.772;2023-07-30T09:03:04;97160.00;;;21.00
19666;BMP180;9980;51.020;7.772;2023-07-30T09:05:32;97171.00;;;21.00
19666;BMP180;9980;51.020;7.772;2023-07-30T09:08:00;97174.00;;;21.10
19666;BMP180;9980;51.020;7.772;2023-07-30T09:10:27;97171.00;;;21.10
19666;BMP180;9980;51.020;7.772;2023-07-30T09:12:56;97177.00;;;21.10
19666;BMP180;9980;51.020;7.772;2023-07-30T09:15:38;97186.00;;;21.10
19666;BMP180;9980;51.020;7.772;2023-07-30T09:18:06;97186.00;;;21.10
19666;BMP180;9980;51.020;7.772;2023-07-30T09:20:40;97185.00;;;21.20
19666;BMP180;9980;51.020;7.772;2023-07-30T09:23:09;97192.00;;;21.20
19666;BMP180;9980;51.020;7.772;2023-07-30T09:25:37;97190.00;;;21.20
19666;BMP180;9980;51.020;7.772;2023-07-30T09:28:08;97187.00;;;21.40
19666;BMP180;9980;51.020;7.772;2023-07-30T09:30:35;97204.00;;;21.40
19666;BMP180;9980;51.020;7.772;2023-07-30T09:33:02;97201.00;;;21.50
19666;BMP180;9980;51.020;7.772;2023-07-30T09:35:33;97184.00;;;21.50
19666;BMP180;9980;51.020;7.772;2023-07-30T09:38:03;97197.00;;;21.60
19666;BMP180;9980;51.020;7.772;2023-07-30T09:40:32;97193.00;;;21.70
19666;BMP180;9980;51.020;7.772;2023-07-30T09:42:59;97190.00;;;21.80
19666;BMP180;9980;51.020;7.772;2023-07-30T09:45:27;97187.00;;;21.90
19666;BMP180;9980;51.020;7.772;2023-07-30T09:47:55;97189.00;;;21.90
19666;BMP180;9980;51.020;7.772;2023-07-30T09:50:24;97193.00;;;21.90
19666;BMP180;9980;51.020;7.772;2023-07-30T09:52:52;97212.00;;;22.00
19666;BMP180;9980;51.020;7.772;2023-07-30T09:55:19;97196.00;;;22.00
19666;BMP180;9980;51.020;7.772;2023-07-30T09:57:47;97206.00;;;22.00
19666;BMP180;9980;51.020;7.772;2023-07-30T10:00:14;97198.00;;;21.90
19666;BMP180;9980;51.020;7.772;2023-07-30T10:02:49;97209.00;;;21.90
19666;BMP180;9980;51.020;7.772;2023-07-30T10:05:19;97203.00;;;21.90
19666;BMP180;9980;51.020;7.772;2023-07-30T10:08:15;97199.00;;;21.90
19666;BMP180;9980;51.020;7.772;2023-07-30T10:10:44;97215.00;;;21.90
19666;BMP180;9980;51.020;7.772;2023-07-30T10:13:12;97203.00;;;22.00
19666;BMP180;9980;51.020;7.772;2023-07-30T10:15:40;97212.00;;;22.00
19666;BMP180;9980;51.020;7.772;2023-07-30T10:18:07;97199.00;;;22.10
19666;BMP180;9980;51.020;7.772;2023-07-30T10:20:34;97217.00;;;22.10
19666;BMP180;9980;51.020;7.772;2023-07-30T10:23:05;97200.00;;;22.30
19666;BMP180;9980;51.020;7.772;2023-07-30T10:25:49;97207.00;;;22.40
19666;BMP180;9980;51.020;7.772;2023-07-30T10:30:59;97220.00;;;22.70
19666;BMP180;9980;51.020;7.772;2023-07-30T10:33:53;97216.00;;;22.70
19666;BMP180;9980;51.020;7.772;2023-07-30T10:36:38;97206.00;;;22.90
19666;BMP180;9980;51.020;7.772;2023-07-30T10:39:20;97212.00;;;23.00
19666;BMP180;9980;51.020;7.772;2023-07-30T10:41:50;97236.00;;;23.20
19666;BMP180;9980;51.020;7.772;2023-07-30T10:46:52;97224.00;;;23.30
19666;BMP180;9980;51.020;7.772;2023-07-30T10:49:19;97212.00;;;23.30
19666;BMP180;9980;51.020;7.772;2023-07-30T10:51:46;97217.00;;;23.40
19666;BMP180;9980;51.020;7.772;2023-07-30T10:54:13;97193.00;;;23.50
19666;BMP180;9980;51.020;7.772;2023-07-30T10:59:39;97223.00;;;23.50
19666;BMP180;9980;51.020;7.772;2023-07-30T11:04:50;97212.00;;;23.50
19666;BMP180;9980;51.020;7.772;2023-07-30T11:07:20;97227.00;;;23.50
19666;BMP180;9980;51.020;7.772;2023-07-30T11:12:48;97231.00;;;23.50
19666;BMP180;9980;51.020;7.772;2023-07-30T11:15:19;97225.00;;;23.50
19666;BMP180;9980;51.020;7.772;2023-07-30T11:17:46;97238.00;;;23.60
19666;BMP180;9980;51.020;7.772;2023-07-30T11:20:24;97227.00;;;23.60
19666;BMP180;9980;51.020;7.772;2023-07-30T11:22:53;97216.00;;;23.70
19666;BMP180;9980;51.020;7.772;2023-07-30T11:25:21;97226.00;;;23.80
19666;BMP180;9980;51.020;7.772;2023-07-30T11:27:49;97222.00;;;23.80
19666;BMP180;9980;51.020;7.772;2023-07-30T11:30:19;97223.00;;;23.80
19666;BMP180;9980;51.020;7.772;2023-07-30T11:32:46;97225.00;;;23.90
19666;BMP180;9980;51.020;7.772;2023-07-30T11:35:16;97224.00;;;23.90
19666;BMP180;9980;51.020;7.772;2023-07-30T11:37:43;97214.00;;;24.00
19666;BMP180;9980;51.020;7.772;2023-07-30T11:40:11;97212.00;;;24.00
19666;BMP180;9980;51.020;7.772;2023-07-30T11:42:39;97214.00;;;24.10
19666;BMP180;9980;51.020;7.772;2023-07-30T11:45:23;97208.00;;;24.10
19666;BMP180;9980;51.020;7.772;2023-07-30T11:47:50;97205.00;;;24.20
19666;BMP180;9980;51.020;7.772;2023-07-30T11:50:17;97206.00;;;24.30
19666;BMP180;9980;51.020;7.772;2023-07-30T11:52:55;97217.00;;;24.30
19666;BMP180;9980;51.020;7.772;2023-07-30T11:55:23;97216.00;;;24.50
19666;BMP180;9980;51.020;7.772;2023-07-30T11:57:53;97220.00;;;24.60
19666;BMP180;9980;51.020;7.772;2023-07-30T12:00:21;97235.00;;;24.60
19666;BMP180;9980;51.020;7.772;2023-07-30T12:02:49;97228.00;;;24.70
19666;BMP180;9980;51.020;7.772;2023-07-30T12:05:17;97230.00;;;24.80
19666;BMP180;9980;51.020;7.772;2023-07-30T12:07:47;97228.00;;;24.80
19666;BMP180;9980;51.020;7.772;2023-07-30T12:10:14;97228.00;;;24.90
19666;BMP180;9980;51.020;7.772;2023-07-30T12:12:51;97214.00;;;25.00
19666;BMP180;9980;51.020;7.772;2023-07-30T12:15:19;97234.00;;;25.10
19666;BMP180;9980;51.020;7.772;2023-07-30T12:17:46;97233.00;;;25.20
19666;BMP180;9980;51.020;7.772;2023-07-30T12:20:14;97236.00;;;25.30
19666;BMP180;9980;51.020;7.772;2023-07-30T12:22:40;97249.00;;;25.40
19666;BMP180;9980;51.020;7.772;2023-07-30T12:25:09;97242.00;;;25.50
19666;BMP180;9980;51.020;7.772;2023-07-30T12:27:37;97253.00;;;25.50
19666;BMP180;9980;51.020;7.772;2023-07-30T12:30:05;97253.00;;;25.50
19666;BMP180;9980;51.020;7.772;2023-07-30T12:32:32;97235.00;;;25.50
19666;BMP180;9980;51.020;7.772;2023-07-30T12:34:59;97247.00;;;25.50
19666;BMP180;9980;51.020;7.772;2023-07-30T12:37:26;97244.00;;;25.50
19666;BMP180;9980;51.020;7.772;2023-07-30T12:39:53;97246.00;;;25.40
19666;BMP180;9980;51.020;7.772;2023-07-30T12:42:20;97259.00;;;25.40
19666;BMP180;9980;51.020;7.772;2023-07-30T12:44:47;97253.00;;;25.30
19666;BMP180;9980;51.020;7.772;2023-07-30T12:47:14;97240.00;;;25.20
19666;BMP180;9980;51.020;7.772;2023-07-30T12:49:41;97242.00;;;25.20
19666;BMP180;9980;51.020;7.772;2023-07-30T12:52:07;97256.00;;;25.10
19666;BMP180;9980;51.020;7.772;2023-07-30T12:54:34;97261.00;;;25.00
19666;BMP180;9980;51.020;7.772;2023-07-30T12:57:02;97263.00;;;25.00
19666;BMP180;9980;51.020;7.772;2023-07-30T12:59:29;97272.00;;;25.00
19666;BMP180;9980;51.020;7.772;2023-07-30T13:01:58;97260.00;;;24.90
19666;BMP180;9980;51.020;7.772;2023-07-30T13:04:25;97275.00;;;24.90
19666;BMP180;9980;51.020;7.772;2023-07-30T13:06:55;97271.00;;;24.90
19666;BMP180;9980;51.020;7.772;2023-07-30T13:09:22;97255.00;;;24.90
19666;BMP180;9980;51.020;7.772;2023-07-30T13:11:49;97263.00;;;24.80
19666;BMP180;9980;51.020;7.772;2023-07-30T13:14:17;97272.00;;;24.80
19666;BMP180;9980;51.020;7.772;2023-07-30T13:16:44;97265.00;;;24.80
19666;BMP180;9980;51.020;7.772;2023-07-30T13:19:11;97263.00;;;24.80
19666;BMP180;9980;51.020;7.772;2023-07-30T13:21:38;97270.00;;;24.70
19666;BMP180;9980;51.020;7.772;2023-07-30T13:24:05;97280.00;;;24.70
19666;BMP180;9980;51.020;7.772;2023-07-30T13:26:32;97276.00;;;24.60
19666;BMP180;9980;51.020;7.772;2023-07-30T13:28:59;97286.00;;;24.50
19666;BMP180;9980;51.020;7.772;2023-07-30T13:31:29;97294.00;;;24.50
19666;BMP180;9980;51.020;7.772;2023-07-30T13:33:57;97295.00;;;24.40
19666;BMP180;9980;51.020;7.772;2023-07-30T13:36:24;97282.00;;;24.40
19666;BMP180;9980;51.020;7.772;2023-07-30T13:38:51;97294.00;;;24.30
19666;BMP180;9980;51.020;7.772;2023-07-30T13:41:18;97291.00;;;24.30
19666;BMP180;9980;51.020;7.772;2023-07-30T13:43:45;97301.00;;;24.30
19666;BMP180;9980;51.020;7.772;2023-07-30T13:46:12;97306.00;;;24.30
19666;BMP180;9980;51.020;7.772;2023-07-30T13:48:39;97290.00;;;24.20
19666;BMP180;9980;51.020;7.772;2023-07-30T13:51:06;97296.00;;;24.20
19666;BMP180;9980;51.020;7.772;2023-07-30T13:53:32;97290.00;;;24.20
19666;BMP180;9980;51.020;7.772;2023-07-30T13:56:02;97290.00;;;24.30
19666;BMP180;9980;51.020;7.772;2023-07-30T13:58:29;97295.00;;;24.30
19666;BMP180;9980;51.020;7.772;2023-07-30T14:00:55;97292.00;;;24.40
19666;BMP180;9980;51.020;7.772;2023-07-30T14:03:23;97292.00;;;24.50
19666;BMP180;9980;51.020;7.772;2023-07-30T14:05:49;97302.00;;;24.60
19666;BMP180;9980;51.020;7.772;2023-07-30T14:08:16;97289.00;;;24.70
19666;BMP180;9980;51.020;7.772;2023-07-30T14:10:45;97303.00;;;24.80
19666;BMP180;9980;51.020;7.772;2023-07-30T14:13:12;97300.00;;;24.80
19666;BMP180;9980;51.020;7.772;2023-07-30T14:15:39;97283.00;;;24.80
19666;BMP180;9980;51.020;7.772;2023-07-30T14:18:05;97295.00;;;24.90
19666;BMP180;9980;51.020;7.772;2023-07-30T14:20:32;97300.00;;;24.80
19666;BMP180;9980;51.020;7.772;2023-07-30T14:23:00;97281.00;;;24.80
19666;BMP180;9980;51.020;7.772;2023-07-30T14:25:29;97276.00;;;24.80
19666;BMP180;9980;51.020;7.772;2023-07-30T14:27:56;97286.00;;;24.80
19666;BMP180;9980;51.020;7.772;2023-07-30T14:30:23;97297.00;;;24.80
19666;BMP180;9980;51.020;7.772;2023-07-30T14:32:50;97298.00;;;24.90
19666;BMP180;9980;51.020;7.772;2023-07-30T14:35:17;97291.00;;;24.90
19666;BMP180;9980;51.020;7.772;2023-07-30T14:37:44;97286.00;;;25.00
19666;BMP180;9980;51.020;7.772;2023-07-30T14:40:11;97293.00;;;25.10